sensor_id;sensor_type;location;lat;lon;timestamp;P1;durP1;ratioP1;P2;durP2;ratioP2
13805;SDS011;6974;53.606;9.872;2023-03-13T00:01:38;34.13;;;10.63;;
13805;SDS011;6974;53.606;9.872;2023-03-13T00:04:08;29.17;;;9.80;;
13805;SDS011;6974;53.606;9.872;2023-03-13T00:06:36;25.27;;;9.20;;
13805;SDS011;6974;53.606;9.872;2023-03-13T00:09:05;25.73;;;9.30;;
13805;SDS011;6974;53.606;9.872;2023-03-13T00:11:33;28.30;;;9.87;;
13805;SDS011;6974;53.606;9.872;2023-03-13T00:14:00;26.23;;;8.93;;
13805;SDS011;6974;53.606;9.872;2023-03-13T00:16:28;36.97;;;9.87;;
13805;SDS011;6974;53.606;9.872;2023-03-13T00:18:56;34.63;;;9.87;;
13805;SDS011;6974;53.606;9.872;2023-03-13T00:21:25;26.83;;;8.43;;
13805;SDS011;6974;53.606;9.872;2023-03-13T00:23:53;22.90;;;8.50;;
13805;SDS011;6974;53.606;9.872;2023-03-13T00:26:22;31.43;;;8.67;;
13805;SDS011;6974;53.606;9.872;2023-03-13T00:28:50;26.10;;;8.70;;
13805;SDS011;6974;53.606;9.872;2023-03-13T00:31:18;25.50;;;9.57;;
13805;SDS011;6974;53.606;9.872;2023-03-13T00:33:47;28.53;;;8.67;;
13805;SDS011;6974;53.606;9.872;2023-03-13T00:36:16;25.67;;;8.17;;
13805;SDS011;6974;53.606;9.872;2023-03-13T00:38:46;25.33;;;8.70;;
13805;SDS011;6974;53.606;9.872;2023-03-13T00:41:13;24.93;;;8.30;;
13805;SDS011;6974;53.606;9.872;2023-03-13T00:43:42;29.30;;;9.53;;
13805;SDS011;6974;53.606;9.872;2023-03-13T00:46:10;28.00;;;9.40;;
13805;SDS011;6974;53.606;9.872;2023-03-13T00:48:38;25.40;;;8.60;;
13805;SDS011;6974;53.606;9.872;2023-03-13T00:51:05;29.07;;;9.73;;
13805;SDS011;6974;53.606;9.872;2023-03-13T00:53:34;25.00;;;8.40;;
13805;SDS011;6974;53.606;9.872;2023-03-13T00:56:03;28.80;;;9.03;;
13805;SDS011;6974;53.606;9.872;2023-03-13T00:58:32;34.67;;;9.43;;
13805;SDS011;6974;53.606;9.872;2023-03-13T01:01:10;26.33;;;8.70;;
13805;SDS011;6974;53.606;9.872;2023-03-13T01:03:39;31.67;;;9.10;;
13805;SDS011;6974;53.606;9.872;2023-03-13T01:06:07;26.87;;;9.13;;
13805;SDS011;6974;53.606;9.872;2023-03-13T01:08:36;34.70;;;9.83;;
13805;SDS011;6974;53.606;9.872;2023-03-13T01:11:05;25.87;;;8.97;;
13805;SDS011;6974;53.606;9.872;2023-03-13T01:13:34;31.73;;;8.73;;
13805;SDS011;6974;53.606;9.872;2023-03-13T01:16:01;31.90;;;9.57;;
13805;SDS011;6974;53.606;9.872;2023-03-13T01:18:29;30.13;;;9.57;;
13805;SDS011;6974;53.606;9.872;2023-03-13T01:20:56;24.37;;;8.80;;
13805;SDS011;6974;53.606;9.872;2023-03-13T01:23:23;30.23;;;8.37;;
13805;SDS011;6974;53.606;9.872;2023-03-13T01:25:50;28.33;;;9.27;;
13805;SDS011;6974;53.606;9.872;2023-03-13T01:28:19;21.63;;;8.63;;
13805;SDS011;6974;53.606;9.872;2023-03-13T01:30:46;31.90;;;9.17;;
13805;SDS011;6974;53.606;9.872;2023-03-13T01:33:13;28.57;;;8.87;;
13805;SDS011;6974;53.606;9.872;2023-03-13T01:35:40;30.83;;;10.90;;
13805;SDS011;6974;53.606;9.872;2023-03-13T01:38:07;36.47;;;10.50;;
13805;SDS011;6974;53.606;9.872;2023-03-13T01:40:38;31.17;;;9.83;;
13805;SDS011;6974;53.606;9.872;2023-03-13T01:43:16;32.87;;;10.03;;
13805;SDS011;6974;53.606;9.872;2023-03-13T01:45:59;25.77;;;8.90;;
13805;SDS011;6974;53.606;9.872;2023-03-13T01:48:31;29.30;;;9.23;;
13805;SDS011;6974;53.606;9.872;2023-03-13T01:51:05;37.20;;;10.50;;
13805;SDS011;6974;53.606;9.872;2023-03-13T01:53:35;30.90;;;9.70;;
13805;SDS011;6974;53.606;9.872;2023-03-13T01:56:07;34.07;;;11.20;;
13805;SDS011;6974;53.606;9.872;2023-03-13T01:58:37;32.70;;;9.50;;
13805;SDS011;6974;53.606;9.872;2023-03-13T02:01:05;35.47;;;10.37;;
13805;SDS011;6974;53.606;9.872;2023-03-13T02:03:32;28.03;;;9.20;;
13805;SDS011;6974;53.606;9.872;2023-03-13T02:06:02;34.03;;;9.70;;
13805;SDS011;6974;53.606;9.872;2023-03-13T02:08:32;35.40;;;10.70;;
13805;SDS011;6974;53.606;9.872;2023-03-13T02:11:05;31.03;;;9.67;;
13805;SDS011;6974;53.606;9.872;2023-03-13T02:13:38;24.40;;;9.40;;
13805;SDS011;6974;53.606;9.872;2023-03-13T02:16:07;30.87;;;9.43;;
13805;SDS011;6974;53.606;9.872;2023-03-13T02:18:34;31.57;;;10.00;;
13805;SDS011;6974;53.606;9.872;2023-03-13T02:21:06;33.53;;;9.50;;
13805;SDS011;6974;53.606;9.872;2023-03-13T02:23:38;31.73;;;9.20;;
13805;SDS011;6974;53.606;9.872;2023-03-13T02:26:12;40.20;;;10.63;;
13805;SDS011;6974;53.606;9.872;2023-03-13T02:28:39;28.67;;;8.83;;
13805;SDS011;6974;53.606;9.872;2023-03-13T02:31:06;29.30;;;9.47;;
13805;SDS011;6974;53.606;9.872;2023-03-13T02:33:34;27.97;;;8.53;;
13805;SDS011;6974;53.606;9.872;2023-03-13T02:36:04;28.77;;;9.30;;
13805;SDS011;6974;53.606;9.872;2023-03-13T02:38:34;28.97;;;9.30;;
13805;SDS011;6974;53.606;9.872;2023-03-13T02:41:11;32.67;;;9.60;;
13805;SDS011;6974;53.606;9.872;2023-03-13T02:43:41;35.00;;;9.50;;
13805;SDS011;6974;53.606;9.872;2023-03-13T02:46:09;35.47;;;9.13;;
13805;SDS011;6974;53.606;9.872;2023-03-13T02:48:38;28.23;;;8.50;;
13805;SDS011;6974;53.606;9.872;2023-03-13T02:51:08;33.33;;;8.27;;
13805;SDS011;6974;53.606;9.872;2023-03-13T02:53:39;30.33;;;8.20;;
13805;SDS011;6974;53.606;9.872;2023-03-13T02:56:08;27.73;;;8.80;;
13805;SDS011;6974;53.606;9.872;2023-03-13T02:58:41;24.33;;;9.00;;
13805;SDS011;6974;53.606;9.872;2023-03-13T03:01:09;32.63;;;9.07;;
13805;SDS011;6974;53.606;9.872;2023-03-13T03:03:36;32.07;;;9.17;;
13805;SDS011;6974;53.606;9.872;2023-03-13T03:06:03;33.17;;;8.50;;
13805;SDS011;6974;53.606;9.872;2023-03-13T03:08:31;26.80;;;9.10;;
13805;SDS011;6974;53.606;9.872;2023-03-13T03:10:59;30.90;;;8.67;;
13805;SDS011;6974;53.606;9.872;2023-03-13T03:13:26;33.17;;;9.57;;
13805;SDS011;6974;53.606;9.872;2023-03-13T03:15:54;28.90;;;9.13;;
13805;SDS011;6974;53.606;9.872;2023-03-13T03:18:21;29.60;;;8.30;;
13805;SDS011;6974;53.606;9.872;2023-03-13T03:20:47;33.87;;;9.07;;
13805;SDS011;6974;53.606;9.872;2023-03-13T03:23:14;24.00;;;7.53;;
13805;SDS011;6974;53.606;9.872;2023-03-13T03:25:41;26.07;;;8.33;;
13805;SDS011;6974;53.606;9.872;2023-03-13T03:28:08;31.83;;;9.20;;
13805;SDS011;6974;53.606;9.872;2023-03-13T03:30:35;33.13;;;8.33;;
13805;SDS011;6974;53.606;9.872;2023-03-13T03:33:03;35.53;;;8.23;;
13805;SDS011;6974;53.606;9.872;2023-03-13T03:35:30;29.63;;;8.40;;
13805;SDS011;6974;53.606;9.872;2023-03-13T03:37:58;32.10;;;8.37;;
13805;SDS011;6974;53.606;9.872;2023-03-13T03:40:25;21.27;;;7.43;;
13805;SDS011;6974;53.606;9.872;2023-03-13T03:42:52;38.67;;;9.13;;
13805;SDS011;6974;53.606;9.872;2023-03-13T03:45:18;28.03;;;8.30;;
13805;SDS011;6974;53.606;9.872;2023-03-13T03:47:45;30.37;;;8.20;;
13805;SDS011;6974;53.606;9.872;2023-03-13T03:50:14;32.37;;;7.60;;
13805;SDS011;6974;53.606;9.872;2023-03-13T03:52:41;28.23;;;8.53;;
13805;SDS011;6974;53.606;9.872;2023-03-13T03:55:08;31.27;;;8.17;;
13805;SDS011;6974;53.606;9.872;2023-03-13T03:57:35;25.07;;;7.17;;
13805;SDS011;6974;53.606;9.872;2023-03-13T04:00:02;31.63;;;8.10;;
13805;SDS011;6974;53.606;9.872;2023-03-13T04:02:31;25.73;;;7.70;;
13805;SDS011;6974;53.606;9.872;2023-03-13T04:04:58;24.57;;;7.33;;
13805;SDS011;6974;53.606;9.872;2023-03-13T04:07:26;25.87;;;6.83;;
13805;SDS011;6974;53.606;9.872;2023-03-13T04:09:53;27.50;;;7.97;;
13805;SDS011;6974;53.606;9.872;2023-03-13T04:12:20;26.03;;;6.83;;
13805;SDS011;6974;53.606;9.872;2023-03-13T04:14:47;28.50;;;7.37;;
13805;SDS011;6974;53.606;9.872;2023-03-13T04:17:14;29.27;;;7.40;;
13805;SDS011;6974;53.606;9.872;2023-03-13T04:19:41;24.57;;;7.83;;
13805;SDS011;6974;53.606;9.872;2023-03-13T04:22:08;29.93;;;7.13;;
13805;SDS011;6974;53.606;9.872;2023-03-13T04:24:36;26.77;;;7.10;;
13805;SDS011;6974;53.606;9.872;2023-03-13T04:27:03;26.77;;;7.00;;
13805;SDS011;6974;53.606;9.872;2023-03-13T04:29:38;31.00;;;7.33;;
13805;SDS011;6974;53.606;9.872;2023-03-13T04:32:05;25.67;;;7.67;;
13805;SDS011;6974;53.606;9.872;2023-03-13T04:34:32;26.37;;;7.50;;
13805;SDS011;6974;53.606;9.872;2023-03-13T04:36:59;34.13;;;7.93;;
13805;SDS011;6974;53.606;9.872;2023-03-13T04:39:26;24.43;;;7.03;;
13805;SDS011;6974;53.606;9.872;2023-03-13T04:41:54;26.30;;;7.73;;
13805;SDS011;6974;53.606;9.872;2023-03-13T04:44:21;29.90;;;7.40;;
13805;SDS011;6974;53.606;9.872;2023-03-13T04:46:48;22.80;;;6.80;;
13805;SDS011;6974;53.606;9.872;2023-03-13T04:49:15;28.87;;;7.50;;
13805;SDS011;6974;53.606;9.872;2023-03-13T04:51:42;24.37;;;6.77;;
13805;SDS011;6974;53.606;9.872;2023-03-13T04:54:10;29.43;;;7.07;;
13805;SDS011;6974;53.606;9.872;2023-03-13T04:56:37;23.53;;;7.53;;
13805;SDS011;6974;53.606;9.872;2023-03-13T04:59:06;27.20;;;7.60;;
13805;SDS011;6974;53.606;9.872;2023-03-13T05:01:32;32.60;;;7.97;;
13805;SDS011;6974;53.606;9.872;2023-03-13T05:03:59;27.07;;;7.30;;
13805;SDS011;6974;53.606;9.872;2023-03-13T05:06:26;29.73;;;7.00;;
13805;SDS011;6974;53.606;9.872;2023-03-13T05:08:53;22.77;;;7.07;;
13805;SDS011;6974;53.606;9.872;2023-03-13T05:11:20;22.33;;;6.97;;
13805;SDS011;6974;53.606;9.872;2023-03-13T05:13:47;27.07;;;6.67;;
13805;SDS011;6974;53.606;9.872;2023-03-13T05:16:15;25.30;;;6.33;;
13805;SDS011;6974;53.606;9.872;2023-03-13T05:18:42;22.47;;;6.23;;
13805;SDS011;6974;53.606;9.872;2023-03-13T05:21:09;16.93;;;5.97;;
13805;SDS011;6974;53.606;9.872;2023-03-13T05:23:36;20.57;;;6.30;;
13805;SDS011;6974;53.606;9.872;2023-03-13T05:26:03;18.00;;;6.70;;
13805;SDS011;6974;53.606;9.872;2023-03-13T05:28:30;21.70;;;7.00;;
13805;SDS011;6974;53.606;9.872;2023-03-13T05:30:57;19.23;;;5.87;;
13805;SDS011;6974;53.606;9.872;2023-03-13T05:33:25;16.20;;;5.70;;
13805;SDS011;6974;53.606;9.872;2023-03-13T05:35:51;14.70;;;5.97;;
13805;SDS011;6974;53.606;9.872;2023-03-13T05:38:18;20.60;;;5.97;;
13805;SDS011;6974;53.606;9.872;2023-03-13T05:40:45;15.43;;;5.10;;
13805;SDS011;6974;53.606;9.872;2023-03-13T05:43:12;17.17;;;6.03;;
13805;SDS011;6974;53.606;9.872;2023-03-13T05:45:39;13.67;;;5.90;;
13805;SDS011;6974;53.606;9.872;2023-03-13T05:48:06;16.10;;;4.70;;
13805;SDS011;6974;53.606;9.872;2023-03-13T05:50:34;11.63;;;4.47;;
13805;SDS011;6974;53.606;9.872;2023-03-13T05:53:01;10.27;;;4.30;;
13805;SDS011;6974;53.606;9.872;2023-03-13T05:55:27;11.63;;;4.43;;
13805;SDS011;6974;53.606;9.872;2023-03-13T05:57:54;10.87;;;4.60;;
13805;SDS011;6974;53.606;9.872;2023-03-13T06:00:21;9.73;;;4.10;;
13805;SDS011;6974;53.606;9.872;2023-03-13T06:02:48;11.53;;;3.97;;
13805;SDS011;6974;53.606;9.872;2023-03-13T06:05:15;9.93;;;3.73;;
13805;SDS011;6974;53.606;9.872;2023-03-13T06:07:43;9.50;;;4.30;;
13805;SDS011;6974;53.606;9.872;2023-03-13T06:10:10;10.13;;;3.90;;
13805;SDS011;6974;53.606;9.872;2023-03-13T06:12:37;10.60;;;3.57;;
13805;SDS011;6974;53.606;9.872;2023-03-13T06:15:04;9.73;;;3.63;;
13805;SDS011;6974;53.606;9.872;2023-03-13T06:17:33;12.20;;;4.40;;
13805;SDS011;6974;53.606;9.872;2023-03-13T06:20:00;10.00;;;3.23;;
13805;SDS011;6974;53.606;9.872;2023-03-13T06:22:28;10.27;;;3.60;;
13805;SDS011;6974;53.606;9.872;2023-03-13T06:24:57;12.00;;;4.10;;
13805;SDS011;6974;53.606;9.872;2023-03-13T06:27:24;9.70;;;3.60;;
13805;SDS011;6974;53.606;9.872;2023-03-13T06:29:50;6.33;;;3.43;;
13805;SDS011;6974;53.606;9.872;2023-03-13T06:32:17;6.47;;;3.00;;
13805;SDS011;6974;53.606;9.872;2023-03-13T06:34:44;7.90;;;3.43;;
13805;SDS011;6974;53.606;9.872;2023-03-13T06:37:11;6.63;;;2.77;;
13805;SDS011;6974;53.606;9.872;2023-03-13T06:39:38;7.33;;;2.83;;
13805;SDS011;6974;53.606;9.872;2023-03-13T06:42:06;6.53;;;2.57;;
13805;SDS011;6974;53.606;9.872;2023-03-13T06:44:33;5.00;;;2.87;;
13805;SDS011;6974;53.606;9.872;2023-03-13T06:47:00;4.83;;;2.70;;
13805;SDS011;6974;53.606;9.872;2023-03-13T06:49:27;8.47;;;3.00;;
13805;SDS011;6974;53.606;9.872;2023-03-13T06:51:55;4.00;;;2.70;;
13805;SDS011;6974;53.606;9.872;2023-03-13T06:54:23;5.73;;;2.40;;
13805;SDS011;6974;53.606;9.872;2023-03-13T06:56:50;6.47;;;3.00;;
13805;SDS011;6974;53.606;9.872;2023-03-13T06:59:18;5.40;;;3.03;;
13805;SDS011;6974;53.606;9.872;2023-03-13T07:01:45;6.60;;;3.23;;
13805;SDS011;6974;53.606;9.872;2023-03-13T07:04:12;4.77;;;3.07;;
13805;SDS011;6974;53.606;9.872;2023-03-13T07:06:40;4.00;;;2.50;;
13805;SDS011;6974;53.606;9.872;2023-03-13T07:09:07;5.17;;;2.90;;
13805;SDS011;6974;53.606;9.872;2023-03-13T07:11:34;4.33;;;2.93;;
13805;SDS011;6974;53.606;9.872;2023-03-13T07:14:01;5.63;;;3.30;;
13805;SDS011;6974;53.606;9.872;2023-03-13T07:16:29;7.57;;;3.20;;
13805;SDS011;6974;53.606;9.872;2023-03-13T07:18:56;7.27;;;3.23;;
13805;SDS011;6974;53.606;9.872;2023-03-13T07:21:22;5.07;;;3.37;;
13805;SDS011;6974;53.606;9.872;2023-03-13T07:23:49;5.87;;;3.37;;
13805;SDS011;6974;53.606;9.872;2023-03-13T07:26:16;5.07;;;3.50;;
13805;SDS011;6974;53.606;9.872;2023-03-13T07:28:44;5.50;;;3.80;;
13805;SDS011;6974;53.606;9.872;2023-03-13T07:31:11;6.57;;;4.00;;
13805;SDS011;6974;53.606;9.872;2023-03-13T07:33:40;4.53;;;3.33;;
13805;SDS011;6974;53.606;9.872;2023-03-13T07:36:09;6.50;;;3.73;;
13805;SDS011;6974;53.606;9.872;2023-03-13T07:38:36;4.93;;;3.50;;
13805;SDS011;6974;53.606;9.872;2023-03-13T07:41:03;7.37;;;3.73;;
13805;SDS011;6974;53.606;9.872;2023-03-13T07:43:31;5.00;;;3.90;;
13805;SDS011;6974;53.606;9.872;2023-03-13T07:45:58;4.50;;;3.60;;
13805;SDS011;6974;53.606;9.872;2023-03-13T07:48:28;4.70;;;3.73;;
13805;SDS011;6974;53.606;9.872;2023-03-13T07:50:57;5.23;;;3.87;;
13805;SDS011;6974;53.606;9.872;2023-03-13T07:53:25;5.73;;;4.50;;
13805;SDS011;6974;53.606;9.872;2023-03-13T07:55:53;6.03;;;4.30;;
13805;SDS011;6974;53.606;9.872;2023-03-13T07:58:21;5.63;;;4.63;;
13805;SDS011;6974;53.606;9.872;2023-03-13T08:00:49;6.63;;;5.23;;
13805;SDS011;6974;53.606;9.872;2023-03-13T08:03:16;6.50;;;5.00;;
13805;SDS011;6974;53.606;9.872;2023-03-13T08:05:42;5.70;;;5.10;;
13805;SDS011;6974;53.606;9.872;2023-03-13T08:08:11;5.70;;;5.00;;
13805;SDS011;6974;53.606;9.872;2023-03-13T08:10:37;5.30;;;4.80;;
13805;SDS011;6974;53.606;9.872;2023-03-13T08:15:40;6.87;;;5.80;;
13805;SDS011;6974;53.606;9.872;2023-03-13T08:18:07;6.03;;;5.43;;
13805;SDS011;6974;53.606;9.872;2023-03-13T08:20:35;6.23;;;5.63;;
13805;SDS011;6974;53.606;9.872;2023-03-13T08:23:02;6.17;;;5.30;;
13805;SDS011;6974;53.606;9.872;2023-03-13T08:25:31;7.07;;;5.70;;
13805;SDS011;6974;53.606;9.872;2023-03-13T08:27:58;5.83;;;5.33;;
13805;SDS011;6974;53.606;9.872;2023-03-13T08:30:26;6.17;;;5.50;;
13805;SDS011;6974;53.606;9.872;2023-03-13T08:32:53;6.03;;;5.37;;
13805;SDS011;6974;53.606;9.872;2023-03-13T08:35:21;6.00;;;5.33;;
13805;SDS011;6974;53.606;9.872;2023-03-13T08:37:48;6.20;;;5.60;;
13805;SDS011;6974;53.606;9.872;2023-03-13T08:40:15;8.00;;;5.40;;
13805;SDS011;6974;53.606;9.872;2023-03-13T08:42:44;7.53;;;6.20;;
13805;SDS011;6974;53.606;9.872;2023-03-13T08:45:12;6.57;;;5.90;;
13805;SDS011;6974;53.606;9.872;2023-03-13T08:47:39;6.70;;;5.93;;
13805;SDS011;6974;53.606;9.872;2023-03-13T08:50:06;7.00;;;6.37;;
13805;SDS011;6974;53.606;9.872;2023-03-13T08:52:34;6.70;;;5.97;;
13805;SDS011;6974;53.606;9.872;2023-03-13T08:55:02;7.33;;;6.53;;
13805;SDS011;6974;53.606;9.872;2023-03-13T08:57:29;7.80;;;6.97;;
13805;SDS011;6974;53.606;9.872;2023-03-13T08:59:58;8.93;;;7.23;;
13805;SDS011;6974;53.606;9.872;2023-03-13T09:02:25;9.00;;;7.40;;
13805;SDS011;6974;53.606;9.872;2023-03-13T09:04:53;9.80;;;8.00;;
13805;SDS011;6974;53.606;9.872;2023-03-13T09:07:20;11.20;;;8.37;;
13805;SDS011;6974;53.606;9.872;2023-03-13T09:09:48;8.90;;;7.60;;
13805;SDS011;6974;53.606;9.872;2023-03-13T09:12:15;10.60;;;7.40;;
13805;SDS011;6974;53.606;9.872;2023-03-13T09:14:42;11.03;;;8.03;;
13805;SDS011;6974;53.606;9.872;2023-03-13T09:17:11;9.37;;;8.37;;
13805;SDS011;6974;53.606;9.872;2023-03-13T09:19:38;10.00;;;8.67;;
13805;SDS011;6974;53.606;9.872;2023-03-13T09:22:06;8.03;;;7.23;;
13805;SDS011;6974;53.606;9.872;2023-03-13T09:24:33;8.53;;;7.53;;
13805;SDS011;6974;53.606;9.872;2023-03-13T09:27:01;10.30;;;8.17;;
13805;SDS011;6974;53.606;9.872;2023-03-13T09:29:28;8.90;;;8.03;;
13805;SDS011;6974;53.606;9.872;2023-03-13T09:31:57;8.70;;;7.90;;
13805;SDS011;6974;53.606;9.872;2023-03-13T09:34:27;11.00;;;7.80;;
13805;SDS011;6974;53.606;9.872;2023-03-13T09:36:54;9.03;;;7.93;;
13805;SDS011;6974;53.606;9.872;2023-03-13T09:39:21;9.17;;;8.13;;
13805;SDS011;6974;53.606;9.872;2023-03-13T09:41:51;9.77;;;8.23;;
13805;SDS011;6974;53.606;9.872;2023-03-13T09:44:23;9.77;;;7.63;;
13805;SDS011;6974;53.606;9.872;2023-03-13T09:46:58;10.93;;;8.13;;
13805;SDS011;6974;53.606;9.872;2023-03-13T09:49:31;8.53;;;7.63;;
13805;SDS011;6974;53.606;9.872;2023-03-13T09:52:03;10.67;;;8.70;;
13805;SDS011;6974;53.606;9.872;2023-03-13T09:54:39;9.70;;;7.90;;
13805;SDS011;6974;53.606;9.872;2023-03-13T09:57:12;11.23;;;7.80;;
13805;SDS011;6974;53.606;9.872;2023-03-13T09:59:44;11.70;;;8.60;;
13805;SDS011;6974;53.606;9.872;2023-03-13T10:02:27;9.33;;;7.63;;
13805;SDS011;6974;53.606;9.872;2023-03-13T10:05:01;12.40;;;8.40;;
13805;SDS011;6974;53.606;9.872;2023-03-13T10:07:33;10.50;;;8.70;;
13805;SDS011;6974;53.606;9.872;2023-03-13T10:10:01;10.20;;;8.30;;
13805;SDS011;6974;53.606;9.872;2023-03-13T10:12:30;10.77;;;7.90;;
13805;SDS011;6974;53.606;9.872;2023-03-13T10:15:14;12.27;;;9.03;;
13805;SDS011;6974;53.606;9.872;2023-03-13T10:17:52;11.60;;;8.53;;
13805;SDS011;6974;53.606;9.872;2023-03-13T10:20:22;8.40;;;7.57;;
13805;SDS011;6974;53.606;9.872;2023-03-13T10:22:53;9.83;;;7.80;;
13805;SDS011;6974;53.606;9.872;2023-03-13T10:25:29;8.77;;;7.50;;
13805;SDS011;6974;53.606;9.872;2023-03-13T10:28:00;9.83;;;7.90;;
13805;SDS011;6974;53.606;9.872;2023-03-13T10:30:28;10.13;;;7.70;;
13805;SDS011;6974;53.606;9.872;2023-03-13T10:32:58;8.50;;;7.70;;
13805;SDS011;6974;53.606;9.872;2023-03-13T10:35:45;8.33;;;7.13;;
13805;SDS011;6974;53.606;9.872;2023-03-13T10:38:12;9.73;;;7.47;;
13805;SDS011;6974;53.606;9.872;2023-03-13T10:40:43;8.40;;;7.37;;
13805;SDS011;6974;53.606;9.872;2023-03-13T10:43:22;9.23;;;7.17;;
13805;SDS011;6974;53.606;9.872;2023-03-13T10:45:53;7.50;;;5.93;;
13805;SDS011;6974;53.606;9.872;2023-03-13T10:48:21;6.73;;;5.83;;
13805;SDS011;6974;53.606;9.872;2023-03-13T10:50:52;6.37;;;5.30;;
13805;SDS011;6974;53.606;9.872;2023-03-13T10:53:25;6.07;;;5.20;;
13805;SDS011;6974;53.606;9.872;2023-03-13T10:55:59;8.90;;;5.17;;
13805;SDS011;6974;53.606;9.872;2023-03-13T10:58:35;7.43;;;5.60;;
13805;SDS011;6974;53.606;9.872;2023-03-13T11:03:50;6.53;;;5.17;;
13805;SDS011;6974;53.606;9.872;2023-03-13T11:06:36;7.23;;;5.53;;
13805;SDS011;6974;53.606;9.872;2023-03-13T11:09:09;7.17;;;4.93;;
13805;SDS011;6974;53.606;9.872;2023-03-13T11:11:43;5.90;;;4.90;;
13805;SDS011;6974;53.606;9.872;2023-03-13T11:14:12;5.77;;;4.67;;
13805;SDS011;6974;53.606;9.872;2023-03-13T11:16:45;6.87;;;4.83;;
13805;SDS011;6974;53.606;9.872;2023-03-13T11:22:18;7.10;;;4.13;;
13805;SDS011;6974;53.606;9.872;2023-03-13T11:24:56;5.47;;;4.10;;
13805;SDS011;6974;53.606;9.872;2023-03-13T11:27:30;5.50;;;3.80;;
13805;SDS011;6974;53.606;9.872;2023-03-13T11:30:05;5.70;;;3.57;;
13805;SDS011;6974;53.606;9.872;2023-03-13T11:32:41;5.00;;;3.23;;
13805;SDS011;6974;53.606;9.872;2023-03-13T11:35:15;5.10;;;3.13;;
13805;SDS011;6974;53.606;9.872;2023-03-13T11:37:49;3.60;;;3.00;;
13805;SDS011;6974;53.606;9.872;2023-03-13T11:40:22;3.43;;;2.60;;
13805;SDS011;6974;53.606;9.872;2023-03-13T11:43:06;3.57;;;2.77;;
13805;SDS011;6974;53.606;9.872;2023-03-13T11:45:47;3.30;;;2.43;;
13805;SDS011;6974;53.606;9.872;2023-03-13T11:51:27;3.33;;;2.37;;
13805;SDS011;6974;53.606;9.872;2023-03-13T11:54:09;3.47;;;2.40;;
13805;SDS011;6974;53.606;9.872;2023-03-13T11:56:52;5.17;;;2.53;;
13805;SDS011;6974;53.606;9.872;2023-03-13T11:59:28;4.57;;;2.40;;
13805;SDS011;6974;53.606;9.872;2023-03-13T12:02:03;5.20;;;2.40;;
13805;SDS011;6974;53.606;9.872;2023-03-13T12:04:41;3.23;;;2.50;;
13805;SDS011;6974;53.606;9.872;2023-03-13T12:07:16;2.83;;;2.40;;
13805;SDS011;6974;53.606;9.872;2023-03-13T12:09:54;3.80;;;2.50;;
13805;SDS011;6974;53.606;9.872;2023-03-13T12:12:30;3.90;;;2.77;;
13805;SDS011;6974;53.606;9.872;2023-03-13T12:15:06;3.83;;;2.30;;
13805;SDS011;6974;53.606;9.872;2023-03-13T12:17:45;4.00;;;2.33;;
13805;SDS011;6974;53.606;9.872;2023-03-13T12:20:18;3.60;;;2.53;;
13805;SDS011;6974;53.606;9.872;2023-03-13T12:22:51;3.53;;;2.40;;
13805;SDS011;6974;53.606;9.872;2023-03-13T12:25:26;5.67;;;2.80;;
13805;SDS011;6974;53.606;9.872;2023-03-13T12:28:02;3.87;;;2.60;;
13805;SDS011;6974;53.606;9.872;2023-03-13T12:30:41;4.33;;;2.13;;
13805;SDS011;6974;53.606;9.872;2023-03-13T12:33:13;3.37;;;2.57;;
13805;SDS011;6974;53.606;9.872;2023-03-13T12:35:47;4.93;;;2.53;;
13805;SDS011;6974;53.606;9.872;2023-03-13T12:38:19;3.23;;;2.10;;
13805;SDS011;6974;53.606;9.872;2023-03-13T12:40:55;4.40;;;2.40;;
13805;SDS011;6974;53.606;9.872;2023-03-13T12:43:32;4.53;;;2.40;;
13805;SDS011;6974;53.606;9.872;2023-03-13T12:46:05;3.47;;;2.17;;
13805;SDS011;6974;53.606;9.872;2023-03-13T12:49:04;3.30;;;2.30;;
13805;SDS011;6974;53.606;9.872;2023-03-13T12:52:09;2.60;;;2.40;;
13805;SDS011;6974;53.606;9.872;2023-03-13T12:55:01;4.50;;;2.70;;
13805;SDS011;6974;53.606;9.872;2023-03-13T13:00:38;3.30;;;2.47;;
13805;SDS011;6974;53.606;9.872;2023-03-13T13:03:13;4.33;;;2.40;;
13805;SDS011;6974;53.606;9.872;2023-03-13T13:06:00;4.80;;;2.40;;
13805;SDS011;6974;53.606;9.872;2023-03-13T13:08:36;5.73;;;2.70;;
13805;SDS011;6974;53.606;9.872;2023-03-13T13:17:29;5.40;;;2.60;;
13805;SDS011;6974;53.606;9.872;2023-03-13T13:23:17;3.33;;;1.93;;
13805;SDS011;6974;53.606;9.872;2023-03-13T13:25:51;2.60;;;1.90;;
13805;SDS011;6974;53.606;9.872;2023-03-13T13:28:25;3.67;;;1.83;;
13805;SDS011;6974;53.606;9.872;2023-03-13T13:31:01;4.87;;;2.20;;
13805;SDS011;6974;53.606;9.872;2023-03-13T13:34:18;2.97;;;2.17;;
13805;SDS011;6974;53.606;9.872;2023-03-13T13:37:23;5.00;;;2.27;;
13805;SDS011;6974;53.606;9.872;2023-03-13T13:39:53;2.40;;;2.00;;
13805;SDS011;6974;53.606;9.872;2023-03-13T13:42:47;7.07;;;2.60;;
13805;SDS011;6974;53.606;9.872;2023-03-13T13:51:19;5.53;;;2.20;;
13805;SDS011;6974;53.606;9.872;2023-03-13T13:53:49;5.37;;;2.00;;
13805;SDS011;6974;53.606;9.872;2023-03-13T13:59:32;5.60;;;2.27;;
13805;SDS011;6974;53.606;9.872;2023-03-13T14:02:13;3.57;;;1.97;;
13805;SDS011;6974;53.606;9.872;2023-03-13T14:05:03;3.90;;;2.00;;
13805;SDS011;6974;53.606;9.872;2023-03-13T14:07:45;4.93;;;2.40;;
13805;SDS011;6974;53.606;9.872;2023-03-13T14:10:24;5.73;;;2.30;;
13805;SDS011;6974;53.606;9.872;2023-03-13T14:13:09;3.13;;;1.87;;
13805;SDS011;6974;53.606;9.872;2023-03-13T14:15:40;3.57;;;2.47;;
13805;SDS011;6974;53.606;9.872;2023-03-13T14:18:09;4.30;;;2.20;;
13805;SDS011;6974;53.606;9.872;2023-03-13T14:20:39;4.63;;;2.40;;
13805;SDS011;6974;53.606;9.872;2023-03-13T14:23:27;3.30;;;2.10;;
13805;SDS011;6974;53.606;9.872;2023-03-13T14:26:10;5.27;;;2.33;;
13805;SDS011;6974;53.606;9.872;2023-03-13T14:28:39;4.50;;;2.20;;
13805;SDS011;6974;53.606;9.872;2023-03-13T14:31:07;5.40;;;2.40;;
13805;SDS011;6974;53.606;9.872;2023-03-13T14:33:36;7.93;;;2.20;;
13805;SDS011;6974;53.606;9.872;2023-03-13T14:36:04;2.90;;;1.97;;
13805;SDS011;6974;53.606;9.872;2023-03-13T14:38:31;4.90;;;2.13;;
13805;SDS011;6974;53.606;9.872;2023-03-13T14:40:58;4.27;;;2.00;;
13805;SDS011;6974;53.606;9.872;2023-03-13T14:43:28;3.07;;;2.07;;
13805;SDS011;6974;53.606;9.872;2023-03-13T14:45:57;3.47;;;2.20;;
13805;SDS011;6974;53.606;9.872;2023-03-13T14:48:27;2.90;;;2.03;;
13805;SDS011;6974;53.606;9.872;2023-03-13T14:50:59;4.03;;;2.17;;
13805;SDS011;6974;53.606;9.872;2023-03-13T14:53:29;4.33;;;2.37;;
13805;SDS011;6974;53.606;9.872;2023-03-13T14:58:45;3.23;;;2.40;;
13805;SDS011;6974;53.606;9.872;2023-03-13T15:01:20;3.80;;;2.10;;
13805;SDS011;6974;53.606;9.872;2023-03-13T15:03:49;4.80;;;2.63;;
13805;SDS011;6974;53.606;9.872;2023-03-13T15:06:18;2.97;;;2.10;;
13805;SDS011;6974;53.606;9.872;2023-03-13T15:08:49;2.87;;;1.83;;
13805;SDS011;6974;53.606;9.872;2023-03-13T15:11:40;3.37;;;2.30;;
13805;SDS011;6974;53.606;9.872;2023-03-13T15:17:07;4.23;;;2.30;;
13805;SDS011;6974;53.606;9.872;2023-03-13T15:19:40;2.73;;;2.20;;
13805;SDS011;6974;53.606;9.872;2023-03-13T15:22:09;3.10;;;1.80;;
13805;SDS011;6974;53.606;9.872;2023-03-13T15:24:40;3.30;;;2.30;;
13805;SDS011;6974;53.606;9.872;2023-03-13T15:27:16;4.07;;;2.00;;
13805;SDS011;6974;53.606;9.872;2023-03-13T15:29:45;4.87;;;2.23;;
13805;SDS011;6974;53.606;9.872;2023-03-13T15:32:13;3.87;;;1.93;;
13805;SDS011;6974;53.606;9.872;2023-03-13T15:34:47;2.57;;;2.00;;
13805;SDS011;6974;53.606;9.872;2023-03-13T15:37:14;2.43;;;2.00;;
13805;SDS011;6974;53.606;9.872;2023-03-13T15:39:42;3.00;;;1.97;;
13805;SDS011;6974;53.606;9.872;2023-03-13T15:42:09;4.23;;;2.40;;
13805;SDS011;6974;53.606;9.872;2023-03-13T15:44:36;3.00;;;2.00;;
13805;SDS011;6974;53.606;9.872;2023-03-13T15:47:03;2.43;;;1.73;;
13805;SDS011;6974;53.606;9.872;2023-03-13T15:49:30;3.23;;;2.00;;
13805;SDS011;6974;53.606;9.872;2023-03-13T15:51:56;3.83;;;2.20;;
13805;SDS011;6974;53.606;9.872;2023-03-13T15:54:23;4.93;;;2.43;;